Extreme weather reports worldwide

Low visibility

Station
 
Location
 
Name
 
Wind
Knots
Gust
Knots
Vis
SM
Temp/Dew
C
Baro
inHg
METAR
 
LIQO 7 0 12/12 29.94 LIQO 070755Z 16007KT 0000 FG VV/// 12/12 Q1014 RMK VAL INVIS NC VIS MIN 0000
GXQ SCCY Coyhaique, CL Teniente Vidal Airport 0 0.16 -3/-4 30.03 SCCY 070800Z AUTO 00000KT 0250 FZFG VV002 M03/M04 Q1017
LIVP 8 0.19 2/1 29.79 LIVP 070755Z 20008KT 0300 FG VV/// 02/01 Q1009 RMK MON INVIS VAL INVIS VIS MIN 0300
ZAL SCVD Valdivia, CL Pichoy Airport 2 0.22 2/2 29.91 SCVD 070800Z AUTO 06002KT 0350 R35/0375N FG VV001 02/02 Q1013
ZCO SCQP Temuco, CL La Araucanía Airport 1 0.22 3/3 29.88 SCQP 070800Z AUTO VRB01KT 0350 R01/0400N FG VV002 03/03 Q1012

Station
 
Location
 
Name
 
Wind
Knots
Gust
Knots
Vis
SM
Temp/Dew
C
Baro
inHg
METAR
 
KY70 0 0.25 0/0 29.99 KY70 070855Z AUTO 00000KT 1/4SM FG OVC002 01/01 A2999 RMK AO2 T00050005
KTEW Mason, US Mason Jewett Field 0 0.25 2/2 29.99 KTEW 070855Z AUTO 00000KT 1/4SM FG BKN001 OVC019 02/02 A2999 RMK AO2 T00220022
WBR KRQB Big Rapids, US Roben Hood Airport 0 0.25 -1/-1 29.96 KRQB 070855Z AUTO 00000KT 1/4SM FZFG OVC002 M02/M02 A2996 RMK AO2 T10161016
KRMY Marshall, US Brooks Field 0 0.25 1/1 29.99 KRMY 070855Z AUTO 00000KT 1/4SM FG OVC002 02/01 A2999 RMK AO2 T00150012
KOEB Coldwater, US Branch County Memorial Airport 0 0.25 3/2 30.00 KOEB 070855Z AUTO 00000KT 1/4SM FG OVC001 03/03 A3000 RMK AO2 T00300027
KMOP Mount Pleasant, US Mount Pleasant Municipal Airport 0 0.25 1/1 29.98 KMOP 070855Z AUTO 00000KT 1/4SM FG OVC002 02/02 A2998 RMK AO2 T00150015
IRS KIRS Sturgis, US Kirsch Municipal Airport 0 0.25 1/0 30.00 KIRS 070855Z AUTO 00000KT 1/4SM FG OVC001 01/01 A3000 RMK AO2 T00120008
KIKW 0 0.25 1/1 29.98 KIKW 070855Z AUTO 00000KT 1/4SM FG OVC002 02/02 A2998 RMK AO2 T00180018
KFFX Fremont, US Fremont Municipal Airport 0 0.25 3/2 29.96 KFFX 070855Z AUTO 00000KT 1/4SM FG OVC002 03/03 A2996 RMK AO2 T00300025
CAD KCAD Cadillac, US Wexford County Airport 0 0.25 0/0 29.93 KCAD 070855Z AUTO 00000KT 1/4SM FG OVC001 01/01 A2993 RMK AO2 T00060005
ANQ KANQ Angola, US Tri State Steuben County Airport 0 0.25 2/2 29.99 KANQ 070855Z AUTO 00000KT M1/4SM FG OVC002 02/02 A2999 RMK AO2
BRW PABR Utqiaġvik, US Wiley Post Will Rogers Memorial Airport 7 0.25 -9/-11 30.34 PABR 070853Z AUTO 08007KT 1/4SM R07/1600V4000FT FZFG VV003 M09/M12 A3034 RMK AO2 SLP276 I3000 T10941117 410941167 56002 TSNO
MBS KMBS Saginaw, US MBS International Airport 3 0.25 2/1 29.99 KMBS 070853Z AUTO 28003KT 1/4SM R23/5000VP6000FT FG BKN007 OVC014 02/02 A2999 RMK AO2 SLP162 T00220017 55009
HTL KHTL Houghton Lake, US Roscommon County - Blodgett Memorial Airport 3 0.25 0/0 29.95 KHTL 070853Z AUTO 10003KT M1/4SM FG VV001 01/00 A2995 RMK AO2 SLP155 T00060000 58006
BTL KBTL Battle Creek, US W K Kellogg Airport 0 0.25 1/1 30.00 KBTL 070853Z AUTO 00000KT 1/4SM R23/1000V1600FT FG VV001 02/02 A3000 RMK AO2 SLP165 6//// I1000 I3/// T00170017 55005 PNO
AMN KAMN Alma, US Gratiot Community Airport 0 0.25 0/0 29.99 KAMN 070838Z AUTO 00000KT M1/4SM FG OVC002 00/00 A2999 RMK AO2 T00000000
K4A9 0 0.25 7/7 30.05 K4A9 070835Z AUTO 00000KT 1/4SM FG OVC002 08/07 A3005 RMK AO2 LTG DSNT E T00770074
YYT CYYT St. John's, CA St. John's International Airport 6 0.25 1/1 29.85 CYYT 070800Z 11006KT 1/4SM R11/1600V2000FT/N R16/1800V2200FT/N FG VV001 01/01 A2985 RMK FG8 SLP115
YHK CYHK Gjoa Haven, CA Gjoa Haven Airport 12 0.25 -7/-7 30.38 CYHK 070800Z AUTO 31012KT 1/4SM FZFG VV003 M07/M07 A3038 RMK ICG SLP293
PMC SCTE Puerto Montt, CL El Tepual Airport 3 0.31 4/4 29.91 SCTE 070800Z 26003KT 0500 FG VV002 04/04 Q1013 NOSIG
FFU SCFT Futaleufu, CL Futaleufú Airport 2 0.31 -1/-1 30.06 SCFT 070800Z AUTO 30002KT 0500 FG VV002 M01/M01 Q1018
LIMH IT Pian Rosà 6 0.31 -6/-7 29.85 LIMH 070755Z 21006KT 0500 -SN FZFG VV/// M06/M07 Q1011 RMK MON INVIS VAL INVIS VIS MIN 0500
ZOS SCJO Osorno, CL Cañal Bajo Carlos - Hott Siebert Airport 3 0.37 4/3 29.91 SCJO 070823Z AUTO 23003KT 180V280 0600 FG VV002 04/03 Q1013
KAO EFKS Kuusamo, FI Kuusamo Airport 12 0.43 -3/-4 29.23 EFKS 070850Z AUTO 34012KT 0700 R12/0750 SN OVC010 M03/M04 Q0990
IPN SBIP Ipatinga, BR Usiminas Airport 2 0.43 / 30.00 SBIP 070800Z AUTO 20002KT 0700 FG VV001 ///// Q1016
IGR SARI Puerto Iguazu, AR Cataratas Del Iguazú International Airport 5 0.43 10/10 30.15 SARI 070800Z 18005KT 0700 BCFG NSC 10/10 Q1021
SHH PASH Shishmaref, US Shishmaref Airport 7 0.5 -5/-6 29.98 PASH 070856Z AUTO 27007KT 1/2SM -SN FZFG CLR M06/M06 A2998 RMK AO2 SNB42 SLP151 P0000 60000 T10561061 400221128 55004 FZRANO
KMVN Mount Vernon, US Mt. Vernon Outland Airport 0 0.5 4/4 30.09 KMVN 070856Z AUTO 00000KT 1/2SM FG VV002 04/04 A3009 RMK AO2 SLP195 T00440044 56014
KRNP Owosso, US Owosso Community Airport 0 0.5 3/2 29.99 KRNP 070855Z AUTO 00000KT 1/2SM FG OVC023 04/03 A2999 RMK AO2 T00350028
OSC KOSC Oscoda, US Oscoda Wurtsmith Airport 0 0.5 0/0 29.96 KOSC 070855Z AUTO 00000KT 1/2SM FG OVC002 00/00 A2996 RMK AO2 T00000000
K6S2 0 0.5 6/5 30.25 K6S2 070855Z AUTO 00000KT 1/2SM FG VV005 07/06 A3025 RMK AO2 60002 T00660056
SCC PASC Deadhorse, US Deadhorse Airport 15 0.5 -6/-8 30.28 PASC 070853Z 07015KT 1/2SM R06/5500VP6000FT -SN BLSN BKN007 OVC012 M07/M08 A3028 RMK AO2 SLP255 P0000 60000 T10671083 410671106 58007 $
GRR KGRR Grand Rapids, US Gerald R. Ford International Airport 0 0.5 0/0 29.99 KGRR 070853Z AUTO 00000KT 1/2SM R26L/2800V5500FT FG VV002 01/00 A2999 RMK AO2 SLP160 T00060000 56011 $
GLR KGLR Gaylord, US Gaylord Regional Airport 0 0.5 0/-2 29.93 KGLR 070853Z AUTO 00000KT 1/2SM FG VV001 00/M02 A2993 RMK AO2 SLP148 I3001 T00001022 56005 $
SLA SASA Salta, AR Martin Miguel De Guemes International Airport 2 0.5 5/4 30.21 SASA 070815Z 32002KT 0800 FG FEW002 SCT020 05/04 Q1023
NLK YSNF Burnt Pine, NF Norfolk Island International Airport 4 0.62 21/21 30.09 YSNF 070832Z AUTO 02004KT 1000 BR OVC002 21/21 Q1019 RF00/0/034/8
YAT CYAT Attawapiskat, CA Attawapiskat Airport 0 0.63 0/0 29.87 CYAT 070851Z AUTO 00000KT 5/8SM BR BKN004 OVC060 M00/M00 A2987 RMK SLP116
KGOV Grayling, US Grayling Army Air Field 0 0.63 -3/-3 29.94 KGOV 070843Z AUTO 00000KT 5/8SM R14/2400FT BR VV001 M03/M03 A2994 RMK AO2 SLP156
RVN EFRO Rovaniemi, FI Rovaniemi Airport 9 0.68 -2/-3 29.41 EFRO 070850Z 35009KT 320V020 1100 R03/1000N SN BKN006 M02/M03 Q0996
KY31 0 0.75 3/2 29.96 KY31 070855Z AUTO 00000KT 3/4SM BR OVC002 03/03 A2996 RMK AO2 T00300026
KOZW Howell, US Livingston County Spencer J. Hardy Airport 0 0.75 4/3 29.98 KOZW 070855Z AUTO 00000KT 3/4SM BR OVC003 04/04 A2998 RMK AO2 T00410036
JXN KJXN Jackson, US Jackson County Reynolds Field 0 0.75 2/1 29.99 KJXN 070853Z AUTO 00000KT 3/4SM BR BKN021 02/01 A2999 RMK AO2 VIS 1/2V4
KBIV Holland, US Tulip City Airport 3 0.75 0/-1 29.99 KBIV 070853Z AUTO 16003KT 3/4SM BR VV001 00/M02 A2999 RMK AO2 SLP159 I3000 T00001017 56013
BTI PABA Barter Island Lrrs, US Barter Island LRRS Airport 16 0.75 -5/-6 30.29 PABA 070852Z AUTO 08016KT 3/4SM BR OVC003 M06/M06 A3029 RMK AO2 SLP262 T10561061 410561106 58010 FZRANO
KGWB Auburn, US De Kalb County Airport 0 0.75 2/2 30.00 KGWB 070835Z AUTO 00000KT 3/4SM BR VV005 02/02 A3000 RMK AO2